createdAt,value
2023-02-12T00:01:22.311Z,25.10
2023-02-12T00:03:50.682Z,24.60
2023-02-12T00:06:18.822Z,23.90
2023-02-12T00:08:52.834Z,24.30
2023-02-12T00:11:26.818Z,20.90
2023-02-12T00:13:55.030Z,21.10
2023-02-12T00:16:28.655Z,21.50
2023-02-12T00:18:57.555Z,20.00
2023-02-12T00:21:25.461Z,21.80
2023-02-12T00:23:53.830Z,20.10
2023-02-12T00:26:22.827Z,18.50
2023-02-12T00:28:51.146Z,18.00
2023-02-12T00:31:21.832Z,19.30
2023-02-12T00:33:50.413Z,17.20
2023-02-12T00:36:20.608Z,17.80
2023-02-12T00:38:49.623Z,17.40
2023-02-12T00:41:17.880Z,17.90
2023-02-12T00:43:46.843Z,16.60
2023-02-12T00:46:15.120Z,17.90
2023-02-12T00:48:45.952Z,18.30
2023-02-12T00:51:14.665Z,15.50
2023-02-12T00:53:43.025Z,13.10
2023-02-12T00:56:11.025Z,14.00
2023-02-12T00:58:38.915Z,13.70
2023-02-12T01:01:09.582Z,12.90
2023-02-12T01:03:38.709Z,11.90
2023-02-12T01:06:07.212Z,11.70
2023-02-12T01:08:37.056Z,13.40
2023-02-12T01:11:06.253Z,10.20
2023-02-12T01:13:37.321Z,10.70
2023-02-12T01:16:16.755Z,10.60
2023-02-12T01:18:45.291Z,9.20
2023-02-12T01:21:27.840Z,12.30
2023-02-12T01:23:56.793Z,11.00
2023-02-12T01:26:25.134Z,9.60
2023-02-12T01:28:55.497Z,10.00
2023-02-12T01:31:25.807Z,10.80
2023-02-12T01:33:55.173Z,8.80
2023-02-12T01:36:26.479Z,9.20
2023-02-12T01:38:55.114Z,9.70
2023-02-12T01:41:30.459Z,10.30
2023-02-12T01:44:15.654Z,9.90
2023-02-12T01:46:44.776Z,7.60
2023-02-12T01:49:19.978Z,8.70
2023-02-12T01:51:48.079Z,9.00
2023-02-12T01:54:17.107Z,6.90
2023-02-12T01:56:50.585Z,6.00
2023-02-12T01:59:19.088Z,5.60
2023-02-12T02:01:47.154Z,5.90
2023-02-12T02:04:20.254Z,5.10
2023-02-12T02:06:55.458Z,5.40
2023-02-12T02:09:24.542Z,4.30
2023-02-12T02:12:13.730Z,4.70
2023-02-12T02:14:42.866Z,4.30
2023-02-12T02:17:48.741Z,3.30
2023-02-12T02:20:35.643Z,3.50
2023-02-12T02:23:25.649Z,4.60
2023-02-12T02:26:25.834Z,3.70
2023-02-12T02:29:28.059Z,2.60
2023-02-12T02:32:03.758Z,2.90
2023-02-12T02:34:40.302Z,2.60
2023-02-12T02:37:26.594Z,3.00
2023-02-12T02:40:21.507Z,2.50
2023-02-12T02:43:11.537Z,2.30
2023-02-12T02:45:51.372Z,3.80
2023-02-12T02:48:26.398Z,2.40
2023-02-12T02:51:00.259Z,1.90
2023-02-12T02:53:31.431Z,2.80
2023-02-12T02:56:02.436Z,1.40
2023-02-12T02:58:43.574Z,1.70
2023-02-12T03:01:19.402Z,2.00
2023-02-12T03:04:04.025Z,1.50
2023-02-12T03:06:38.856Z,2.20
2023-02-12T03:09:21.849Z,1.60
2023-02-12T03:11:50.994Z,1.00
2023-02-12T03:14:42.985Z,1.30
2023-02-12T03:17:15.052Z,1.10
2023-02-12T03:19:48.000Z,1.20
2023-02-12T03:22:18.420Z,1.00
2023-02-12T03:24:48.801Z,1.20
2023-02-12T03:27:41.421Z,0.90
2023-02-12T03:30:10.438Z,1.10
2023-02-12T03:32:51.231Z,3.40
2023-02-12T03:35:25.459Z,1.50
2023-02-12T03:38:17.916Z,1.50
2023-02-12T03:40:50.797Z,1.50
2023-02-12T03:43:31.297Z,1.00
2023-02-12T03:46:13.738Z,2.90
2023-02-12T03:48:50.301Z,0.80
2023-02-12T03:51:44.884Z,2.40
2023-02-12T03:54:13.987Z,1.00
2023-02-12T03:56:52.485Z,0.90
2023-02-12T03:59:24.522Z,1.20
2023-02-12T04:01:54.361Z,2.30
2023-02-12T04:04:27.205Z,1.60
2023-02-12T04:06:55.568Z,1.60
2023-02-12T04:09:24.201Z,1.10
2023-02-12T04:12:14.124Z,1.40
2023-02-12T04:15:11.250Z,1.80
2023-02-12T04:18:08.159Z,2.30
2023-02-12T04:20:46.425Z,2.10
2023-02-12T04:23:20.896Z,1.20
2023-02-12T04:25:53.488Z,4.10
2023-02-12T04:28:41.834Z,2.20
2023-02-12T04:31:39.788Z,4.00
2023-02-12T04:34:33.677Z,2.00
2023-02-12T04:37:07.791Z,2.90
2023-02-12T04:39:37.213Z,4.20
2023-02-12T04:42:07.140Z,3.20
2023-02-12T04:44:41.679Z,2.00
2023-02-12T04:47:12.767Z,2.50
2023-02-12T04:49:41.364Z,3.50
2023-02-12T04:52:09.566Z,2.70
2023-02-12T04:54:39.196Z,2.60
2023-02-12T04:57:07.276Z,1.70
2023-02-12T04:59:36.492Z,2.40
2023-02-12T05:02:05.901Z,5.90
2023-02-12T05:04:34.620Z,3.80
2023-02-12T05:07:02.457Z,5.10
2023-02-12T05:09:30.546Z,5.80
2023-02-12T05:11:59.768Z,6.80
2023-02-12T05:14:28.678Z,3.80
2023-02-12T05:16:56.569Z,1.70
2023-02-12T05:19:28.017Z,3.80
2023-02-12T05:21:56.030Z,4.70
2023-02-12T05:24:24.012Z,4.30
2023-02-12T05:26:52.085Z,3.00
2023-02-12T05:29:19.989Z,3.20
2023-02-12T05:31:50.254Z,3.60
2023-02-12T05:34:18.377Z,3.70
2023-02-12T05:36:46.390Z,3.10
2023-02-12T05:39:14.846Z,4.40
2023-02-12T05:41:42.810Z,3.00
2023-02-12T05:44:12.155Z,1.70
2023-02-12T05:46:41.027Z,3.60
2023-02-12T05:49:09.729Z,2.70
2023-02-12T05:51:39.057Z,2.10
2023-02-12T05:54:07.240Z,3.50
2023-02-12T05:56:37.466Z,4.80
2023-02-12T05:59:07.344Z,3.40
2023-02-12T06:01:38.152Z,4.20
2023-02-12T06:04:08.186Z,3.30
2023-02-12T06:06:42.148Z,3.70
2023-02-12T06:09:12.430Z,3.30
2023-02-12T06:11:40.545Z,4.70
2023-02-12T06:14:09.677Z,1.90
2023-02-12T06:16:37.672Z,3.00
2023-02-12T06:19:06.480Z,4.00
2023-02-12T06:21:34.642Z,3.20
2023-02-12T06:24:03.625Z,4.20
2023-02-12T06:26:34.017Z,5.60
2023-02-12T06:29:02.103Z,3.00
2023-02-12T06:31:31.908Z,2.60
2023-02-12T06:34:01.777Z,3.30
2023-02-12T06:36:29.894Z,2.90
2023-02-12T06:38:57.882Z,3.30
2023-02-12T06:41:26.250Z,4.10
2023-02-12T06:43:55.457Z,4.10
2023-02-12T06:46:23.530Z,4.60
2023-02-12T06:48:55.741Z,4.30
2023-02-12T06:51:24.493Z,6.80
2023-02-12T06:53:53.604Z,4.90
2023-02-12T06:56:22.558Z,4.10
2023-02-12T06:58:58.056Z,2.20
2023-02-12T07:01:28.050Z,3.50
2023-02-12T07:03:57.780Z,3.50
2023-02-12T07:06:26.484Z,3.50
2023-02-12T07:08:55.577Z,2.30
2023-02-12T07:11:33.339Z,2.20
2023-02-12T07:14:01.937Z,2.00
2023-02-12T07:16:30.132Z,3.10
2023-02-12T07:18:58.204Z,3.20
2023-02-12T07:21:26.345Z,3.40
2023-02-12T07:23:54.490Z,2.10
2023-02-12T07:26:23.823Z,2.80
2023-02-12T07:28:51.803Z,1.30
2023-02-12T07:31:22.421Z,1.30
2023-02-12T07:33:56.354Z,2.10
2023-02-12T07:36:25.651Z,4.20
2023-02-12T07:38:54.652Z,2.90
2023-02-12T07:41:27.865Z,3.20
2023-02-12T07:44:07.480Z,1.80
2023-02-12T07:46:39.483Z,3.20
2023-02-12T07:49:08.429Z,3.10
2023-02-12T07:51:38.360Z,3.90
2023-02-12T07:54:06.784Z,5.80
2023-02-12T07:56:37.573Z,2.10
2023-02-12T07:59:07.363Z,2.00
2023-02-12T08:01:36.727Z,3.70
2023-02-12T08:04:09.691Z,2.70
2023-02-12T08:06:39.940Z,1.60
2023-02-12T08:09:10.074Z,1.60
2023-02-12T08:11:38.737Z,1.50
2023-02-12T08:14:08.439Z,2.20
2023-02-12T08:16:39.385Z,3.30
2023-02-12T08:19:19.429Z,1.90
2023-02-12T08:21:50.320Z,2.50
2023-02-12T08:24:18.699Z,2.80
2023-02-12T08:26:46.794Z,5.90
2023-02-12T08:29:16.554Z,2.70
2023-02-12T08:31:49.378Z,5.70
2023-02-12T08:34:22.039Z,2.60
2023-02-12T08:36:51.642Z,4.00
2023-02-12T08:39:19.920Z,5.40
2023-02-12T08:41:52.044Z,3.30
2023-02-12T08:44:20.148Z,1.90
2023-02-12T08:46:50.367Z,2.30
2023-02-12T08:49:27.205Z,5.10
2023-02-12T08:51:57.324Z,2.20
2023-02-12T08:54:29.258Z,1.70
2023-02-12T08:56:58.495Z,3.50
2023-02-12T08:59:26.629Z,1.80
2023-02-12T09:01:57.416Z,2.50
2023-02-12T09:04:28.888Z,2.40
2023-02-12T09:07:02.716Z,2.00
2023-02-12T09:09:34.373Z,2.70
2023-02-12T09:12:08.608Z,3.30
2023-02-12T09:14:38.016Z,1.70
2023-02-12T09:17:05.992Z,3.40
2023-02-12T09:19:36.641Z,1.70
2023-02-12T09:22:04.527Z,2.80
2023-02-12T09:24:36.278Z,2.10
2023-02-12T09:27:06.684Z,1.80
2023-02-12T09:29:36.893Z,3.60
2023-02-12T09:32:06.660Z,2.80
2023-02-12T09:34:36.167Z,2.70
2023-02-12T09:37:04.049Z,2.70
2023-02-12T09:39:32.413Z,3.10
2023-02-12T09:42:23.352Z,2.60
2023-02-12T09:44:54.720Z,2.40
2023-02-12T09:47:57.642Z,3.50
2023-02-12T09:50:37.552Z,3.60
2023-02-12T09:53:06.404Z,3.30
2023-02-12T09:55:35.179Z,1.80
2023-02-12T09:58:05.627Z,1.70
2023-02-12T10:00:33.514Z,1.40
2023-02-12T10:03:05.500Z,1.90
2023-02-12T10:05:47.912Z,2.80
2023-02-12T10:08:30.963Z,2.00
2023-02-12T10:11:33.421Z,1.80
2023-02-12T10:14:10.518Z,4.10
2023-02-12T10:17:15.560Z,1.90
2023-02-12T10:19:54.095Z,2.60
2023-02-12T10:22:28.930Z,4.30
2023-02-12T10:25:06.556Z,2.10
2023-02-12T10:27:46.973Z,4.30
2023-02-12T10:30:32.418Z,1.30
2023-02-12T10:33:04.994Z,3.30
2023-02-12T10:35:33.029Z,1.90
2023-02-12T10:38:06.521Z,3.30
2023-02-12T10:40:34.578Z,3.00
2023-02-12T10:43:03.284Z,3.00
2023-02-12T10:45:33.773Z,2.00
2023-02-12T10:48:39.061Z,2.30
2023-02-12T10:51:07.230Z,1.20
2023-02-12T10:53:36.752Z,2.40
2023-02-12T10:56:19.479Z,3.50
2023-02-12T10:58:50.392Z,2.70
2023-02-12T11:01:35.339Z,3.40
2023-02-12T11:04:30.321Z,4.20
2023-02-12T11:07:09.718Z,3.00
2023-02-12T11:09:45.416Z,2.30
2023-02-12T11:12:20.794Z,2.30
2023-02-12T11:14:50.634Z,1.20
2023-02-12T11:17:34.187Z,2.40
2023-02-12T11:20:04.308Z,2.70
2023-02-12T11:22:32.680Z,2.20
2023-02-12T11:25:02.614Z,1.60
2023-02-12T11:27:31.123Z,2.10
2023-02-12T11:30:15.360Z,1.10
2023-02-12T11:32:44.302Z,1.30
2023-02-12T11:35:33.873Z,1.10
2023-02-12T11:38:02.689Z,2.10
2023-02-12T11:40:33.731Z,3.10
2023-02-12T11:43:05.820Z,2.00
2023-02-12T11:45:53.870Z,1.10
2023-02-12T11:48:35.977Z,2.70
2023-02-12T11:51:05.520Z,2.10
2023-02-12T11:53:36.149Z,2.20
2023-02-12T11:56:10.296Z,2.80
2023-02-12T11:58:40.393Z,2.80
2023-02-12T12:01:24.915Z,1.70
2023-02-12T12:04:12.094Z,1.40
2023-02-12T12:06:47.746Z,1.40
2023-02-12T12:09:21.585Z,1.80
2023-02-12T12:12:18.129Z,1.40
2023-02-12T12:15:05.786Z,1.80
2023-02-12T12:20:28.353Z,1.50
2023-02-12T12:23:03.978Z,2.00
2023-02-12T12:25:37.161Z,4.70
2023-02-12T12:28:50.044Z,2.70
2023-02-12T12:31:28.096Z,1.60
2023-02-12T12:34:08.859Z,2.50
2023-02-12T12:36:46.670Z,1.00
2023-02-12T12:39:18.947Z,1.00
2023-02-12T12:42:12.711Z,1.90
2023-02-12T12:45:18.652Z,2.10
2023-02-12T12:48:17.946Z,1.40
2023-02-12T12:53:42.580Z,2.80
2023-02-12T12:56:52.788Z,2.00
2023-02-12T12:59:49.561Z,2.00
2023-02-12T13:02:51.841Z,5.30
2023-02-12T13:05:38.911Z,1.90
2023-02-12T13:08:06.859Z,9.90
2023-02-12T13:10:40.797Z,3.90
2023-02-12T13:13:41.934Z,2.00
2023-02-12T13:16:29.175Z,9.30
2023-02-12T13:19:06.364Z,11.10
2023-02-12T13:21:41.958Z,3.50
2023-02-12T13:24:15.780Z,1.20
2023-02-12T13:26:55.034Z,36.20
2023-02-12T13:29:32.136Z,1.90
2023-02-12T13:32:15.875Z,3.70
2023-02-12T13:34:45.596Z,1.70
2023-02-12T13:37:17.325Z,0.60
2023-02-12T13:39:47.104Z,1.00
2023-02-12T13:42:25.905Z,1.20
2023-02-12T13:45:13.217Z,3.50
2023-02-12T13:48:11.515Z,1.60
2023-02-12T13:50:48.223Z,1.80
2023-02-12T13:53:22.215Z,1.80
2023-02-12T13:56:14.726Z,1.00
2023-02-12T13:58:48.325Z,2.90
2023-02-12T14:01:35.437Z,1.50
2023-02-12T14:04:23.263Z,0.70
2023-02-12T14:06:59.751Z,1.60
2023-02-12T14:09:42.370Z,1.00
2023-02-12T14:12:43.416Z,1.30
2023-02-12T14:15:34.700Z,2.30
2023-02-12T14:18:02.972Z,2.10
2023-02-12T14:20:34.722Z,2.20
2023-02-12T14:23:28.896Z,1.30
2023-02-12T14:26:15.633Z,5.10
2023-02-12T14:28:58.557Z,2.10
2023-02-12T14:31:26.683Z,1.10
2023-02-12T14:34:06.892Z,1.00
2023-02-12T14:36:39.067Z,1.70
2023-02-12T14:39:19.456Z,2.30
2023-02-12T14:42:14.545Z,2.80
2023-02-12T14:44:47.800Z,2.70
2023-02-12T14:47:36.356Z,1.40
2023-02-12T14:50:19.410Z,1.80
2023-02-12T14:52:52.222Z,0.90
2023-02-12T14:55:26.403Z,4.30
2023-02-12T14:58:01.395Z,5.40
2023-02-12T15:00:36.033Z,1.90
2023-02-12T15:03:16.850Z,2.60
2023-02-12T15:06:15.356Z,3.50
2023-02-12T15:08:45.251Z,2.20
2023-02-12T15:11:36.965Z,2.20
2023-02-12T15:14:04.998Z,2.40
2023-02-12T15:16:59.995Z,3.80
2023-02-12T15:19:44.147Z,5.10
2023-02-12T15:22:26.447Z,6.60
2023-02-12T15:25:30.231Z,6.50
2023-02-12T15:28:01.039Z,5.20
2023-02-12T15:30:30.868Z,5.80
2023-02-12T15:33:01.124Z,3.50
2023-02-12T15:35:33.367Z,14.00
2023-02-12T15:38:02.046Z,6.90
2023-02-12T15:40:31.133Z,5.40
2023-02-12T15:43:04.115Z,5.00
2023-02-12T15:45:34.872Z,4.40
2023-02-12T15:48:09.733Z,4.20
2023-02-12T15:51:18.556Z,5.00
2023-02-12T15:53:46.660Z,4.30
2023-02-12T15:56:17.127Z,4.40
2023-02-12T15:58:50.370Z,6.10
2023-02-12T16:01:23.973Z,4.30
2023-02-12T16:03:53.837Z,3.60
2023-02-12T16:06:22.228Z,4.30
2023-02-12T16:09:03.288Z,5.40
2023-02-12T16:11:31.316Z,5.20
2023-02-12T16:14:03.530Z,3.30
2023-02-12T16:16:49.646Z,6.80
2023-02-12T16:19:27.987Z,3.80
2023-02-12T16:22:02.620Z,12.90
2023-02-12T16:24:48.009Z,10.50
2023-02-12T16:27:29.000Z,3.90
2023-02-12T16:29:59.037Z,3.40
2023-02-12T16:32:27.836Z,3.60
2023-02-12T16:35:09.940Z,5.80
2023-02-12T16:37:38.430Z,3.60
2023-02-12T16:40:12.588Z,6.60
2023-02-12T16:42:47.448Z,5.80
2023-02-12T16:45:24.998Z,4.10
2023-02-12T16:50:39.499Z,3.80
2023-02-12T16:53:15.625Z,4.70
2023-02-12T16:55:43.542Z,6.30
2023-02-12T16:58:12.166Z,5.30
2023-02-12T17:00:40.342Z,3.80
2023-02-12T17:03:15.540Z,6.70
2023-02-12T17:05:45.273Z,6.00
2023-02-12T17:08:14.055Z,11.90
2023-02-12T17:10:42.271Z,23.20
2023-02-12T17:13:11.914Z,23.50
2023-02-12T17:15:46.023Z,14.90
2023-02-12T17:18:17.299Z,14.00
2023-02-12T17:20:51.286Z,9.00
2023-02-12T17:23:19.154Z,7.20
2023-02-12T17:25:47.350Z,7.10
2023-02-12T17:28:15.786Z,8.60
2023-02-12T17:30:44.096Z,6.50
2023-02-12T17:33:12.272Z,8.90
2023-02-12T17:35:40.957Z,7.90
2023-02-12T17:38:09.177Z,10.30
2023-02-12T17:40:37.854Z,8.70
2023-02-12T17:43:06.045Z,8.40
2023-02-12T17:45:35.337Z,8.70
2023-02-12T17:48:03.640Z,6.50
2023-02-12T17:50:31.743Z,8.30
2023-02-12T17:53:00.674Z,6.20
2023-02-12T17:55:29.786Z,8.60
2023-02-12T17:57:57.678Z,10.80
2023-02-12T18:00:26.723Z,7.30
2023-02-12T18:02:55.256Z,6.60
2023-02-12T18:05:23.547Z,6.40
2023-02-12T18:07:52.281Z,5.60
2023-02-12T18:10:23.427Z,8.00
2023-02-12T18:12:52.704Z,6.50
2023-02-12T18:15:21.260Z,7.50
2023-02-12T18:17:49.317Z,5.00
2023-02-12T18:20:18.006Z,6.10
2023-02-12T18:22:47.361Z,6.30
2023-02-12T18:25:17.340Z,7.70
2023-02-12T18:27:46.329Z,3.90
2023-02-12T18:30:14.954Z,5.70
2023-02-12T18:32:43.491Z,4.20
2023-02-12T18:35:11.505Z,5.20
2023-02-12T18:37:43.267Z,5.10
2023-02-12T18:40:12.161Z,4.70
2023-02-12T18:42:40.079Z,5.70
2023-02-12T18:45:08.730Z,7.60
2023-02-12T18:47:36.732Z,6.10
2023-02-12T18:50:05.989Z,4.60
2023-02-12T18:52:34.576Z,14.20
2023-02-12T18:55:03.984Z,20.10
2023-02-12T18:57:31.981Z,10.40
2023-02-12T18:59:59.901Z,8.40
2023-02-12T19:02:27.919Z,6.70
2023-02-12T19:04:56.052Z,7.20
2023-02-12T19:07:24.515Z,7.00
2023-02-12T19:09:52.766Z,8.50
2023-02-12T19:12:20.979Z,8.00
2023-02-12T19:14:48.990Z,7.70
2023-02-12T19:17:17.391Z,7.10
2023-02-12T19:19:45.223Z,4.60
2023-02-12T19:22:13.204Z,5.70
2023-02-12T19:24:47.048Z,8.10
2023-02-12T19:27:15.524Z,8.50
2023-02-12T19:29:43.902Z,11.10
2023-02-12T19:32:14.005Z,8.40
2023-02-12T19:34:42.121Z,9.00
2023-02-12T19:37:11.772Z,5.70
2023-02-12T19:39:40.961Z,6.40
2023-02-12T19:42:10.619Z,4.50
2023-02-12T19:44:40.723Z,6.20
2023-02-12T19:47:09.238Z,6.10
2023-02-12T19:49:38.233Z,4.40
2023-02-12T19:52:06.746Z,4.60
2023-02-12T19:54:35.529Z,5.10
2023-02-12T19:57:08.641Z,5.90
2023-02-12T19:59:36.836Z,5.30
2023-02-12T20:02:04.788Z,8.10
2023-02-12T20:04:33.867Z,9.10
2023-02-12T20:07:02.020Z,6.60
2023-02-12T20:09:30.301Z,5.10
2023-02-12T20:11:59.631Z,7.60
2023-02-12T20:14:27.723Z,7.10
2023-02-12T20:16:58.491Z,8.30
2023-02-12T20:19:31.301Z,9.20
2023-02-12T20:22:01.523Z,6.90
2023-02-12T20:24:30.879Z,7.20
2023-02-12T20:26:59.952Z,8.00
2023-02-12T20:29:28.747Z,7.90
2023-02-12T20:31:56.905Z,5.90
2023-02-12T20:34:25.021Z,8.10
2023-02-12T20:36:54.316Z,6.30
2023-02-12T20:39:22.383Z,7.70
2023-02-12T20:41:51.790Z,6.90
2023-02-12T20:44:21.452Z,6.40
2023-02-12T20:46:55.919Z,6.50
2023-02-12T20:49:25.363Z,6.70
2023-02-12T20:51:53.378Z,6.90
2023-02-12T20:54:21.352Z,8.40
2023-02-12T20:56:50.436Z,7.20
2023-02-12T20:59:18.989Z,8.30
2023-02-12T21:01:48.078Z,10.60
2023-02-12T21:04:17.556Z,8.60
2023-02-12T21:06:47.418Z,8.40
2023-02-12T21:09:15.550Z,10.20
2023-02-12T21:11:46.732Z,10.20
2023-02-12T21:14:24.214Z,7.10
2023-02-12T21:16:54.237Z,7.50
2023-02-12T21:19:22.892Z,9.20
2023-02-12T21:21:51.396Z,7.30
2023-02-12T21:24:25.846Z,10.00
2023-02-12T21:26:54.298Z,7.30
2023-02-12T21:29:23.919Z,6.80
2023-02-12T21:31:52.205Z,8.40
2023-02-12T21:34:21.589Z,7.10
2023-02-12T21:36:50.587Z,5.80
2023-02-12T21:39:25.095Z,8.30
2023-02-12T21:41:56.895Z,6.90
2023-02-12T21:44:25.029Z,7.30
2023-02-12T21:46:53.480Z,6.60
2023-02-12T21:49:30.271Z,9.10
2023-02-12T21:54:31.299Z,7.20
2023-02-12T21:57:00.056Z,7.30
2023-02-12T21:59:31.467Z,9.20
2023-02-12T22:02:00.807Z,9.30
2023-02-12T22:04:31.793Z,8.60
2023-02-12T22:07:03.409Z,11.40
2023-02-12T22:09:35.288Z,9.40
2023-02-12T22:12:06.131Z,10.40
2023-02-12T22:14:34.467Z,9.20
2023-02-12T22:17:02.474Z,5.20
2023-02-12T22:19:30.442Z,11.20
2023-02-12T22:21:58.541Z,8.70
2023-02-12T22:24:26.738Z,8.40
2023-02-12T22:26:55.938Z,9.20
2023-02-12T22:29:24.038Z,8.50
2023-02-12T22:31:52.269Z,8.50
2023-02-12T22:34:20.476Z,8.20
2023-02-12T22:36:48.610Z,7.50
2023-02-12T22:39:17.985Z,9.90
2023-02-12T22:41:46.280Z,7.10
2023-02-12T22:44:15.003Z,6.60
2023-02-12T22:46:44.050Z,6.20
2023-02-12T22:49:12.111Z,4.70
2023-02-12T22:51:40.432Z,9.00
2023-02-12T22:54:18.626Z,13.70
2023-02-12T22:56:50.328Z,13.20
2023-02-12T22:59:18.512Z,11.50
2023-02-12T23:01:46.480Z,9.60
2023-02-12T23:04:18.238Z,8.70
2023-02-12T23:06:46.550Z,5.80
2023-02-12T23:09:16.845Z,4.90
2023-02-12T23:11:45.813Z,4.80
2023-02-12T23:14:17.652Z,4.10
2023-02-12T23:16:47.265Z,4.00
2023-02-12T23:19:15.496Z,4.80
2023-02-12T23:21:44.920Z,4.70
2023-02-12T23:24:14.274Z,4.20
2023-02-12T23:26:42.460Z,4.20
2023-02-12T23:29:10.423Z,5.50
2023-02-12T23:31:41.341Z,4.60
2023-02-12T23:34:09.806Z,5.10
2023-02-12T23:36:37.896Z,6.20
2023-02-12T23:39:06.017Z,6.40
2023-02-12T23:41:34.322Z,7.60
2023-02-12T23:44:02.369Z,7.90
2023-02-12T23:46:30.770Z,6.70
2023-02-12T23:48:59.398Z,8.50
2023-02-12T23:51:28.084Z,7.00
2023-02-12T23:53:57.506Z,10.90
2023-02-12T23:56:25.545Z,8.10
2023-02-12T23:58:56.618Z,11.30
